Time;durP1;ratioP1;P1;durP2;ratioP2;P2;SDS_P1;SDS_P2;PMS_P1;PMS_P2;Temp;Humidity;BMP_temperature;BMP_pressure;BME280_temperature;BME280_humidity;BME280_pressure;Samples;Min_cycle;Max_cycle;Signal;HPM_P1;HPM_P2
2023/10/05 00:01:24;;;;;;;6.07;2.67;;;9.20;99.90;;;;;;5054917;28;20464;-65
2023/10/05 00:03:51;;;;;;;6.32;2.63;;;9.20;99.90;;;;;;5055020;28;20029;-65
2023/10/05 00:06:23;;;;;;;5.15;2.35;;;9.20;99.90;;;;;;5054769;28;20025;-65
2023/10/05 00:08:50;;;;;;;4.82;2.20;;;9.20;99.90;;;;;;5054863;28;20024;-66
2023/10/05 00:11:29;;;;;;;6.47;2.70;;;9.20;99.90;;;;;;5054232;28;20029;-65
2023/10/05 00:13:59;;;;;;;3.85;1.98;;;9.20;99.90;;;;;;5054430;28;20055;-65
2023/10/05 00:16:38;;;;;;;3.10;2.53;;;9.10;99.90;;;;;;5054702;28;20033;-65
2023/10/05 00:19:12;;;;;;;3.33;2.08;;;9.20;99.90;;;;;;5037014;28;20021;-65
2023/10/05 00:21:52;;;;;;;3.65;2.05;;;9.10;99.90;;;;;;5036214;28;20056;-65
2023/10/05 00:24:23;;;;;;;4.07;2.50;;;9.10;99.90;;;;;;5054342;28;20033;-65
2023/10/05 00:26:49;;;;;;;4.05;2.53;;;9.10;99.90;;;;;;5054569;28;20066;-65
2023/10/05 00:31:44;;;;;;;4.67;2.57;;;9.00;99.90;;;;;;5054118;28;20481;-65
2023/10/05 00:34:18;;;;;;;3.40;2.08;;;9.00;99.90;;;;;;5054381;28;20731;-65
2023/10/05 00:36:49;;;;;;;4.55;2.20;;;9.00;99.90;;;;;;5036487;28;20024;-65
2023/10/05 00:39:21;;;;;;;6.80;2.60;;;8.90;99.90;;;;;;5054136;28;20029;-65
2023/10/05 00:44:26;;;;;;;7.88;2.38;;;8.90;99.90;;;;;;5054094;28;20029;-65
2023/10/05 00:46:52;;;;;;;4.68;2.38;;;8.90;99.90;;;;;;5054053;28;20488;-66
2023/10/05 00:49:23;;;;;;;4.72;2.38;;;8.80;99.90;;;;;;5052893;28;20033;-65
2023/10/05 00:54:30;;;;;;;2.30;2.10;;;8.70;99.90;;;;;;5053843;28;20033;-65
2023/10/05 00:56:57;;;;;;;8.40;2.70;;;8.70;99.90;;;;;;5053960;28;20028;-65
2023/10/05 00:59:25;;;;;;;5.60;2.50;;;8.60;99.90;;;;;;5036132;28;20056;-65
2023/10/05 01:04:41;;;;;;;4.10;2.60;;;8.50;99.90;;;;;;5054274;28;20033;-66
2023/10/05 01:10:27;;;;;;;3.80;2.60;;;8.40;99.90;;;;;;5031283;28;20041;-69
2023/10/05 01:12:54;;;;;;;4.68;2.47;;;8.30;99.90;;;;;;5054652;28;20021;-66
2023/10/05 01:15:32;;;;;;;5.07;2.45;;;8.30;99.90;;;;;;5053772;28;20078;-65
2023/10/05 01:17:58;;;;;;;4.72;2.65;;;8.20;99.90;;;;;;5053871;28;20021;-66
2023/10/05 01:20:25;;;;;;;4.90;2.40;;;8.20;99.90;;;;;;5053669;28;20025;-65
2023/10/05 01:22:55;;;;;;;5.20;2.92;;;8.20;99.90;;;;;;5053568;28;20052;-65
2023/10/05 01:25:21;;;;;;;4.65;2.67;;;8.20;99.90;;;;;;5053714;28;20025;-65
2023/10/05 01:27:50;;;;;;;4.35;2.70;;;8.20;99.90;;;;;;5053912;28;20479;-65
2023/10/05 01:30:16;;;;;;;5.78;2.63;;;8.10;99.90;;;;;;5035616;28;20060;-65
2023/10/05 01:32:42;;;;;;;5.55;2.40;;;8.20;99.90;;;;;;5066580;28;20053;-65
2023/10/05 01:35:13;;;;;;;10.73;2.58;;;8.20;99.90;;;;;;5073118;28;20033;-65
2023/10/05 01:37:40;;;;;;;8.75;2.78;;;8.20;99.90;;;;;;5073494;28;20020;-65
2023/10/05 01:42:46;;;;;;;3.70;2.43;;;8.10;99.90;;;;;;5073617;28;20024;-65
2023/10/05 01:45:19;;;;;;;3.40;2.13;;;8.10;99.90;;;;;;5073671;28;20067;-65
2023/10/05 01:47:45;;;;;;;2.80;2.38;;;8.10;99.90;;;;;;5073484;28;20032;-65
2023/10/05 01:50:22;;;;;;;2.85;2.13;;;8.10;99.90;;;;;;5072260;28;20032;-65
2023/10/05 01:53:07;;;;;;;6.70;2.67;;;8.10;99.90;;;;;;5073150;28;20107;-65
2023/10/05 01:55:34;;;;;;;3.17;2.00;;;8.10;99.90;;;;;;5072613;28;20079;-65
2023/10/05 01:58:00;;;;;;;3.10;2.17;;;8.00;99.90;;;;;;5073269;28;20024;-65
2023/10/05 02:00:26;;;;;;;4.65;2.67;;;7.90;99.90;;;;;;5075752;28;20464;-65
2023/10/05 02:02:55;;;;;;;4.97;2.05;;;7.90;99.90;;;;;;5075918;28;20031;-65
2023/10/05 02:05:21;;;;;;;4.63;2.83;;;7.80;99.90;;;;;;5076920;28;20054;-65
2023/10/05 02:07:49;;;;;;;4.10;1.95;;;7.80;99.90;;;;;;5075312;28;20117;-65
2023/10/05 02:10:19;;;;;;;3.67;2.42;;;7.80;99.90;;;;;;5075765;28;20028;-65
2023/10/05 02:12:49;;;;;;;4.00;2.45;;;7.70;99.90;;;;;;5076076;28;20452;-65
2023/10/05 02:15:16;;;;;;;5.75;2.53;;;7.70;99.90;;;;;;5076400;28;20468;-65
2023/10/05 02:17:51;;;;;;;3.50;1.98;;;7.70;99.90;;;;;;5076683;28;20028;-65
2023/10/05 02:23:47;;;;;;;3.85;2.25;;;7.70;99.90;;;;;;5067503;28;20033;-65
2023/10/05 02:26:23;;;;;;;3.38;2.25;;;7.60;99.90;;;;;;5075363;28;20396;-65
2023/10/05 02:28:53;;;;;;;3.85;2.20;;;7.60;99.90;;;;;;5076624;28;20021;-65
2023/10/05 02:31:21;;;;;;;4.95;2.35;;;7.50;99.90;;;;;;5070415;28;20063;-65
2023/10/05 02:33:47;;;;;;;7.65;2.85;;;7.50;99.90;;;;;;5038474;28;20021;-65
2023/10/05 02:36:26;;;;;;;6.40;2.72;;;7.40;99.90;;;;;;5056327;28;20462;-65
2023/10/05 02:38:56;;;;;;;3.95;3.05;;;7.40;99.90;;;;;;5038555;28;20441;-65
2023/10/05 02:41:30;;;;;;;4.28;2.45;;;7.40;99.90;;;;;;5056488;28;20027;-65
2023/10/05 02:43:58;;;;;;;4.05;2.42;;;7.40;99.90;;;;;;5056566;28;20032;-65
2023/10/05 02:46:24;;;;;;;4.28;2.63;;;7.40;99.90;;;;;;5056115;28;20048;-65
2023/10/05 02:48:50;;;;;;;4.40;2.05;;;7.40;99.90;;;;;;5056293;28;20021;-65
2023/10/05 02:51:18;;;;;;;3.38;2.40;;;7.40;99.90;;;;;;5056087;28;20021;-65
2023/10/05 02:53:46;;;;;;;6.00;2.35;;;7.40;99.90;;;;;;5056015;28;20021;-65
2023/10/05 02:56:22;;;;;;;3.67;2.22;;;7.40;99.90;;;;;;5038056;28;20433;-65
2023/10/05 02:58:50;;;;;;;5.10;2.72;;;7.40;99.90;;;;;;5056252;28;20025;-65
2023/10/05 03:01:16;;;;;;;2.67;2.17;;;7.40;99.90;;;;;;5056016;28;20052;-69
2023/10/05 03:03:43;;;;;;;4.85;2.38;;;7.30;99.90;;;;;;5055812;28;20029;-65
2023/10/05 03:06:10;;;;;;;2.80;2.30;;;7.30;99.90;;;;;;5056114;28;20078;-65
2023/10/05 03:08:36;;;;;;;4.25;2.05;;;7.30;99.90;;;;;;5056048;28;20032;-65
2023/10/05 03:11:03;;;;;;;4.03;2.28;;;7.30;99.90;;;;;;5054527;28;20064;-65
2023/10/05 03:13:29;;;;;;;8.80;2.08;;;7.30;99.90;;;;;;5038199;28;20029;-66
2023/10/05 03:15:55;;;;;;;4.85;2.42;;;7.30;99.90;;;;;;5056956;28;20122;-65
2023/10/05 03:18:21;;;;;;;4.70;2.17;;;7.30;99.90;;;;;;5056737;28;20017;-66
2023/10/05 03:20:46;;;;;;;3.20;1.88;;;7.20;99.90;;;;;;5038291;28;20031;-67
2023/10/05 03:23:16;;;;;;;3.90;2.50;;;7.20;99.90;;;;;;5056580;28;20024;-65
2023/10/05 03:25:41;;;;;;;4.13;1.98;;;7.20;99.90;;;;;;5037611;28;20036;-66
2023/10/05 03:28:07;;;;;;;2.67;2.20;;;7.20;99.90;;;;;;5055564;28;20025;-65
2023/10/05 03:30:35;;;;;;;5.72;2.13;;;7.20;99.90;;;;;;5055474;28;20032;-65
2023/10/05 03:33:04;;;;;;;7.82;2.47;;;7.20;99.90;;;;;;5073367;28;20101;-65
2023/10/05 03:35:33;;;;;;;6.60;2.53;;;7.20;99.90;;;;;;5075482;28;20029;-65
2023/10/05 03:38:00;;;;;;;6.95;2.40;;;7.20;99.90;;;;;;5075212;28;20036;-65
2023/10/05 03:40:30;;;;;;;4.47;2.42;;;7.10;99.90;;;;;;5073828;28;20483;-65
2023/10/05 03:42:59;;;;;;;6.68;3.25;;;7.10;99.90;;;;;;5074997;28;20385;-65
2023/10/05 03:45:24;;;;;;;3.35;2.55;;;7.10;99.90;;;;;;5075188;28;20033;-65
2023/10/05 03:47:50;;;;;;;4.70;2.13;;;7.10;99.90;;;;;;5075054;28;20434;-65
2023/10/05 03:50:19;;;;;;;5.00;1.95;;;7.10;99.90;;;;;;5073713;28;20056;-65
2023/10/05 03:52:45;;;;;;;3.80;2.40;;;7.10;99.90;;;;;;5074941;28;20078;-65
2023/10/05 03:55:11;;;;;;;6.47;2.58;;;7.10;99.90;;;;;;5074995;28;20037;-65
2023/10/05 03:57:41;;;;;;;6.43;2.47;;;7.10;99.90;;;;;;5073674;28;20020;-65
2023/10/05 04:00:23;;;;;;;3.88;2.53;;;7.10;99.90;;;;;;5075257;28;20476;-65
2023/10/05 04:02:52;;;;;;;5.72;2.97;;;7.10;99.90;;;;;;5073889;28;20025;-65
2023/10/05 04:05:20;;;;;;;4.47;2.30;;;7.10;99.90;;;;;;5074811;28;20372;-65
2023/10/05 04:07:47;;;;;;;6.53;2.33;;;7.10;99.90;;;;;;5074870;28;20353;-65
2023/10/05 04:10:20;;;;;;;4.88;2.20;;;7.10;99.90;;;;;;5075239;28;20025;-66
2023/10/05 04:12:46;;;;;;;3.83;2.80;;;7.10;99.90;;;;;;5076623;28;20028;-67
2023/10/05 04:15:12;;;;;;;3.22;2.28;;;7.10;99.90;;;;;;5075004;28;20037;-66
2023/10/05 04:17:42;;;;;;;4.60;2.60;;;7.10;99.90;;;;;;5075494;28;20078;-66
2023/10/05 04:20:17;;;;;;;4.85;2.60;;;7.10;99.90;;;;;;5074246;28;20020;-65
2023/10/05 04:22:43;;;;;;;6.65;2.58;;;7.00;99.90;;;;;;5074711;28;20373;-66
2023/10/05 04:25:09;;;;;;;4.65;2.90;;;7.00;99.90;;;;;;5075443;28;20040;-67
2023/10/05 04:27:34;;;;;;;7.47;3.45;;;7.00;99.90;;;;;;5074145;28;20062;-66
2023/10/05 04:30:00;;;;;;;7.32;5.20;;;6.90;99.90;;;;;;5074330;28;20028;-66
2023/10/05 04:32:26;;;;;;;7.72;3.80;;;6.90;99.90;;;;;;5073272;28;20087;-67
2023/10/05 04:34:52;;;;;;;9.95;4.03;;;6.90;99.90;;;;;;5074835;28;20028;-67
2023/10/05 04:37:18;;;;;;;7.32;3.80;;;6.90;99.90;;;;;;5073033;28;20552;-66
2023/10/05 04:39:43;;;;;;;9.40;4.10;;;6.90;99.90;;;;;;5074734;28;20024;-64
2023/10/05 04:42:15;;;;;;;10.40;4.45;;;7.00;99.90;;;;;;5074092;28;20028;-64
2023/10/05 04:44:41;;;;;;;9.80;4.70;;;6.90;99.90;;;;;;5073429;28;20417;-65
2023/10/05 04:47:09;;;;;;;10.43;4.30;;;6.90;99.90;;;;;;5074349;28;20107;-65
2023/10/05 04:49:37;;;;;;;7.70;4.13;;;6.90;99.90;;;;;;5073970;28;20028;-64
2023/10/05 04:52:06;;;;;;;9.07;3.63;;;7.00;99.90;;;;;;5073944;28;20021;-65
2023/10/05 04:54:38;;;;;;;9.60;4.20;;;6.90;99.90;;;;;;5072294;28;20033;-65
2023/10/05 04:57:12;;;;;;;8.82;3.97;;;6.90;99.90;;;;;;5072660;28;20056;-65
2023/10/05 04:59:48;;;;;;;10.00;3.45;;;7.00;99.90;;;;;;5073963;28;20024;-65
2023/10/05 05:02:39;;;;;;;7.38;3.40;;;6.90;99.90;;;;;;5073881;28;20523;-65
2023/10/05 05:05:31;;;;;;;12.23;3.33;;;6.90;99.90;;;;;;5074135;28;20036;-65
2023/10/05 05:07:52;;;;;;;7.43;3.70;;;6.90;99.90;;;;;;5073705;28;20039;-65
2023/10/05 05:10:20;;;;;;;7.13;3.65;;;6.90;99.90;;;;;;5073727;28;20020;-65
2023/10/05 05:12:46;;;;;;;10.20;3.85;;;6.90;99.90;;;;;;5073691;28;20075;-65
2023/10/05 05:15:13;;;;;;;6.13;3.42;;;6.90;99.90;;;;;;5073868;28;20047;-65
2023/10/05 05:17:40;;;;;;;14.57;3.65;;;6.90;99.90;;;;;;5074207;28;20479;-66
2023/10/05 05:20:11;;;;;;;6.82;3.95;;;6.90;99.90;;;;;;5074924;28;20037;-66
2023/10/05 05:22:37;;;;;;;5.70;3.22;;;6.90;99.90;;;;;;5074804;28;20420;-67
2023/10/05 05:25:06;;;;;;;10.30;4.28;;;6.90;99.90;;;;;;5074554;28;20040;-67
2023/10/05 05:27:33;;;;;;;6.35;3.67;;;6.90;99.90;;;;;;5074461;28;20029;-65
2023/10/05 05:29:59;;;;;;;7.22;4.38;;;6.90;99.90;;;;;;5074011;28;20418;-65
2023/10/05 05:32:24;;;;;;;6.97;3.58;;;6.90;99.90;;;;;;5059371;28;20132;-65
2023/10/05 05:34:51;;;;;;;8.57;3.35;;;7.00;99.90;;;;;;5054941;28;20037;-65
2023/10/05 05:37:29;;;;;;;6.82;3.20;;;7.00;99.90;;;;;;5039597;28;20469;-65
2023/10/05 05:39:56;;;;;;;9.63;3.53;;;7.00;99.90;;;;;;5058108;28;20029;-65
2023/10/05 05:42:25;;;;;;;7.90;3.83;;;7.10;99.90;;;;;;5040003;28;20055;-65
2023/10/05 05:44:52;;;;;;;5.25;3.45;;;7.10;99.90;;;;;;5057263;28;20025;-65
2023/10/05 05:47:18;;;;;;;4.93;3.22;;;7.20;99.90;;;;;;5057266;28;20033;-65
2023/10/05 05:49:47;;;;;;;7.43;3.70;;;7.20;99.90;;;;;;5039338;28;20021;-65
2023/10/05 05:52:14;;;;;;;7.88;3.80;;;7.20;99.90;;;;;;5039404;28;20029;-65
2023/10/05 05:54:46;;;;;;;7.15;3.60;;;7.30;99.90;;;;;;5056855;28;20040;-65
2023/10/05 05:57:13;;;;;;;6.93;2.88;;;7.40;99.90;;;;;;5057158;28;20024;-65
2023/10/05 05:59:39;;;;;;;6.80;2.60;;;7.50;99.90;;;;;;5039148;28;20029;-65
2023/10/05 06:02:10;;;;;;;7.55;3.08;;;7.50;99.90;;;;;;5056998;28;20061;-65
2023/10/05 06:04:38;;;;;;;3.72;2.58;;;7.60;99.90;;;;;;5056958;28;20032;-65
2023/10/05 06:07:11;;;;;;;5.20;2.95;;;7.70;99.90;;;;;;5056938;28;20021;-65
2023/10/05 06:09:39;;;;;;;7.88;2.88;;;7.80;99.90;;;;;;5056968;28;20021;-65
2023/10/05 06:12:05;;;;;;;4.15;2.55;;;7.90;99.90;;;;;;5056813;28;20025;-65
2023/10/05 06:14:34;;;;;;;5.57;2.50;;;8.10;99.90;;;;;;5056740;28;20321;-65
2023/10/05 06:17:00;;;;;;;4.00;2.28;;;8.20;99.90;;;;;;5038859;28;20025;-66
2023/10/05 06:19:26;;;;;;;7.55;2.10;;;8.30;99.90;;;;;;5038868;28;20025;-66
2023/10/05 06:21:52;;;;;;;3.55;2.00;;;8.50;99.90;;;;;;5056984;28;20025;-66
2023/10/05 06:24:18;;;;;;;2.95;1.88;;;8.50;99.90;;;;;;5056555;28;20526;-66
2023/10/05 06:26:45;;;;;;;5.50;2.47;;;8.70;99.90;;;;;;5038679;28;20596;-65
2023/10/05 06:29:13;;;;;;;4.55;2.10;;;8.90;99.90;;;;;;5056478;28;20017;-66
2023/10/05 06:31:43;;;;;;;3.40;2.15;;;9.20;99.90;;;;;;5056240;28;20052;-66
2023/10/05 06:34:09;;;;;;;5.53;2.40;;;9.40;99.90;;;;;;5038168;28;20094;-66
2023/10/05 06:36:41;;;;;;;3.70;2.30;;;9.60;99.90;;;;;;5056291;28;20029;-66
2023/10/05 06:39:09;;;;;;;5.15;2.10;;;9.80;99.90;;;;;;5056514;28;20021;-65
2023/10/05 06:41:36;;;;;;;6.78;2.30;;;10.00;99.90;;;;;;5056299;28;20160;-66
2023/10/05 06:44:02;;;;;;;4.88;2.30;;;10.20;99.90;;;;;;5056201;28;20029;-66
2023/10/05 06:46:29;;;;;;;13.10;2.72;;;10.50;99.90;;;;;;5037008;28;20524;-66
2023/10/05 06:48:55;;;;;;;8.98;1.75;;;10.60;99.90;;;;;;5056297;28;20029;-66
2023/10/05 06:51:28;;;;;;;4.90;1.90;;;10.90;99.90;;;;;;5038163;28;20108;-66
2023/10/05 06:53:57;;;;;;;3.42;1.77;;;11.00;99.90;;;;;;5055929;28;20053;-66
2023/10/05 06:56:23;;;;;;;4.25;1.95;;;11.10;99.90;;;;;;5056042;28;20028;-66
2023/10/05 06:58:49;;;;;;;6.05;1.80;;;11.30;99.90;;;;;;5038040;28;20479;-66
2023/10/05 07:01:15;;;;;;;4.57;2.10;;;11.50;99.90;;;;;;5038062;28;20029;-66
2023/10/05 07:03:41;;;;;;;3.38;1.70;;;11.60;99.90;;;;;;5037942;28;20457;-66
2023/10/05 07:06:07;;;;;;;6.47;2.20;;;11.70;99.90;;;;;;5037971;28;20025;-66
2023/10/05 07:08:33;;;;;;;5.18;2.40;;;11.70;99.90;;;;;;5037872;28;20449;-66
2023/10/05 07:10:59;;;;;;;6.53;2.28;;;11.80;99.90;;;;;;5056017;28;20029;-66
2023/10/05 07:13:28;;;;;;;6.30;2.55;;;11.90;99.90;;;;;;5055470;28;20527;-66
2023/10/05 07:15:55;;;;;;;13.18;3.13;;;12.00;99.90;;;;;;5055540;28;20029;-66
2023/10/05 07:18:21;;;;;;;7.97;2.33;;;12.10;99.90;;;;;;5055553;28;20036;-66
2023/10/05 07:20:48;;;;;;;3.00;1.60;;;12.40;99.90;;;;;;5037639;28;20029;-66
2023/10/05 07:23:13;;;;;;;6.18;1.75;;;12.80;99.90;;;;;;5055412;28;20025;-66
2023/10/05 07:25:41;;;;;;;5.18;2.05;;;13.30;99.90;;;;;;5037531;28;20112;-66
2023/10/05 07:28:14;;;;;;;5.68;1.80;;;13.70;99.90;;;;;;5055658;28;20028;-66
2023/10/05 07:30:41;;;;;;;6.97;1.95;;;14.00;99.90;;;;;;5055073;28;20029;-66
2023/10/05 07:33:06;;;;;;;5.88;2.13;;;14.10;99.90;;;;;;5054967;28;20025;-66
2023/10/05 07:35:32;;;;;;;4.18;1.80;;;14.40;99.90;;;;;;5055187;28;20032;-66
2023/10/05 07:37:59;;;;;;;6.18;2.22;;;14.80;99.90;;;;;;5055551;28;20088;-66
2023/10/05 07:40:25;;;;;;;4.13;2.17;;;15.10;99.90;;;;;;5054827;28;20477;-66
2023/10/05 07:42:51;;;;;;;4.47;1.88;;;15.50;99.90;;;;;;5054783;28;20027;-66
2023/10/05 07:45:16;;;;;;;9.75;2.88;;;15.80;99.90;;;;;;5055070;28;20033;-66
2023/10/05 07:47:43;;;;;;;4.32;1.98;;;15.80;99.90;;;;;;5037199;28;20056;-66
2023/10/05 07:50:10;;;;;;;5.35;1.92;;;15.90;99.90;;;;;;5055314;28;20075;-66
2023/10/05 07:52:38;;;;;;;3.95;1.90;;;15.90;99.90;;;;;;5055010;28;20353;-66
2023/10/05 07:55:06;;;;;;;5.07;2.03;;;16.00;99.90;;;;;;5054843;28;20036;-66
2023/10/05 07:57:31;;;;;;;3.42;1.95;;;16.20;99.90;;;;;;5054448;28;20025;-66
2023/10/05 07:59:57;;;;;;;4.00;2.05;;;16.40;99.90;;;;;;5036625;28;20029;-66
2023/10/05 08:02:23;;;;;;;4.43;2.38;;;16.50;99.90;;;;;;5036802;28;20067;-66
2023/10/05 08:04:48;;;;;;;5.07;1.73;;;17.00;99.90;;;;;;5054634;28;20497;-66
2023/10/05 08:07:15;;;;;;;4.50;2.05;;;17.60;99.90;;;;;;5054634;28;20457;-67
2023/10/05 08:09:44;;;;;;;6.82;1.95;;;18.00;99.90;;;;;;5054527;28;20090;-67
2023/10/05 08:12:12;;;;;;;4.28;1.88;;;18.50;99.40;;;;;;5054613;28;20064;-67
2023/10/05 08:14:39;;;;;;;3.70;1.80;;;18.70;98.50;;;;;;5054419;28;20064;-67
2023/10/05 08:17:05;;;;;;;3.55;1.92;;;19.00;97.90;;;;;;5036811;28;20028;-67
2023/10/05 08:19:31;;;;;;;4.28;1.98;;;19.30;97.50;;;;;;5054763;28;20029;-66
2023/10/05 08:21:56;;;;;;;7.65;2.05;;;19.40;96.90;;;;;;5054498;28;20029;-66
2023/10/05 08:24:25;;;;;;;10.85;2.42;;;19.50;96.90;;;;;;5054369;28;20079;-66
2023/10/05 08:26:56;;;;;;;2.47;1.80;;;19.50;97.10;;;;;;5054501;28;20354;-67
2023/10/05 08:29:22;;;;;;;6.07;2.08;;;19.70;96.50;;;;;;5054356;28;20457;-64
2023/10/05 08:31:51;;;;;;;2.70;1.83;;;19.90;96.00;;;;;;5054129;28;20512;-66
2023/10/05 08:34:20;;;;;;;3.47;1.63;;;20.10;94.90;;;;;;5054675;28;20469;-66
2023/10/05 08:36:53;;;;;;;4.65;2.25;;;20.20;94.40;;;;;;5053814;28;20396;-64
2023/10/05 08:39:25;;;;;;;4.57;2.10;;;20.20;95.00;;;;;;5036606;28;20075;-66
2023/10/05 08:41:54;;;;;;;4.07;2.15;;;20.30;94.60;;;;;;5054304;28;20024;-64
2023/10/05 08:44:27;;;;;;;5.07;1.98;;;20.50;94.00;;;;;;5054220;28;20029;-65
2023/10/05 08:46:55;;;;;;;5.20;2.40;;;20.70;93.40;;;;;;5054235;28;20024;-65
2023/10/05 08:49:23;;;;;;;3.80;2.13;;;20.90;93.00;;;;;;5053393;28;20365;-65
2023/10/05 08:51:49;;;;;;;6.95;2.20;;;21.30;92.40;;;;;;5036232;28;20412;-65
2023/10/05 08:54:15;;;;;;;4.85;2.40;;;21.70;90.70;;;;;;5053844;28;20484;-65
2023/10/05 08:56:46;;;;;;;3.17;2.22;;;22.10;90.30;;;;;;5053916;28;20029;-65
2023/10/05 08:59:16;;;;;;;3.85;1.50;;;22.80;87.50;;;;;;5053998;28;20021;-65
2023/10/05 09:01:42;;;;;;;2.85;1.30;;;23.60;82.00;;;;;;5054336;28;20031;-65
2023/10/05 09:04:23;;;;;;;2.92;1.60;;;24.20;77.30;;;;;;5053963;28;20116;-65
2023/10/05 09:06:57;;;;;;;5.22;1.52;;;24.40;75.40;;;;;;5036120;28;20433;-65
2023/10/05 09:09:51;;;;;;;1.75;1.23;;;24.80;72.50;;;;;;5052846;28;20025;-65
2023/10/05 09:12:34;;;;;;;2.58;1.40;;;24.80;70.40;;;;;;5053864;28;20029;-65
2023/10/05 09:15:10;;;;;;;2.22;1.60;;;25.00;67.30;;;;;;5036188;28;20036;-65
2023/10/05 09:17:36;;;;;;;3.10;1.08;;;24.40;67.80;;;;;;5053558;28;20076;-65
2023/10/05 09:20:30;;;;;;;3.25;1.85;;;24.30;68.10;;;;;;5053806;28;20025;-65
2023/10/05 09:22:58;;;;;;;3.03;1.40;;;24.50;65.40;;;;;;5050834;28;20091;-65
2023/10/05 09:25:27;;;;;;;3.65;1.73;;;24.70;64.80;;;;;;5053745;28;20033;-65
2023/10/05 09:28:08;;;;;;;4.75;1.40;;;24.90;64.00;;;;;;5054073;28;20051;-65
2023/10/05 09:30:34;;;;;;;2.15;1.30;;;24.90;63.60;;;;;;5056103;28;20025;-68
2023/10/05 09:33:15;;;;;;;2.20;1.63;;;24.60;63.50;;;;;;5059490;28;20053;-71
2023/10/05 09:35:46;;;;;;;3.97;1.83;;;24.60;63.40;;;;;;5058519;28;20072;-65
2023/10/05 09:38:14;;;;;;;4.45;1.88;;;24.50;64.20;;;;;;5058889;28;20021;-65
2023/10/05 09:40:40;;;;;;;3.65;1.52;;;24.40;62.90;;;;;;5054663;28;20067;-65
2023/10/05 09:43:10;;;;;;;3.03;1.60;;;24.30;63.10;;;;;;5053333;28;20083;-65
2023/10/05 09:45:38;;;;;;;2.55;1.50;;;24.40;63.30;;;;;;5053325;28;20045;-65
2023/10/05 09:48:07;;;;;;;3.33;1.40;;;24.60;62.60;;;;;;5053229;28;20036;-65
2023/10/05 09:50:33;;;;;;;1.73;1.45;;;24.40;62.10;;;;;;5053545;28;20029;-65
2023/10/05 09:52:59;;;;;;;5.63;1.55;;;24.20;62.10;;;;;;5053363;28;20060;-65
2023/10/05 09:55:25;;;;;;;3.97;1.70;;;24.40;62.40;;;;;;5052906;28;20141;-65
2023/10/05 09:57:51;;;;;;;3.97;1.63;;;24.30;61.80;;;;;;5035356;28;20029;-65
2023/10/05 10:00:47;;;;;;;3.20;1.45;;;24.10;62.00;;;;;;5053420;28;20061;-65
2023/10/05 10:03:17;;;;;;;3.13;1.45;;;23.90;60.70;;;;;;5035240;28;20074;-65
2023/10/05 10:06:06;;;;;;;4.45;1.80;;;23.90;60.70;;;;;;5035695;28;20067;-65
2023/10/05 10:08:34;;;;;;;13.35;2.60;;;24.20;59.30;;;;;;5035508;28;20111;-65
2023/10/05 10:11:02;;;;;;;4.35;2.15;;;24.40;59.10;;;;;;5052963;28;20025;-65
2023/10/05 10:13:37;;;;;;;3.83;1.47;;;23.80;59.50;;;;;;5035294;28;20395;-65
2023/10/05 10:16:22;;;;;;;3.35;1.75;;;23.60;59.60;;;;;;5053571;28;20108;-64
2023/10/05 10:19:07;;;;;;;3.97;1.80;;;24.20;58.60;;;;;;5053442;28;20033;-67
2023/10/05 10:21:36;;;;;;;2.03;1.55;;;25.30;57.90;;;;;;5055705;28;20032;-64
2023/10/05 10:24:04;;;;;;;3.45;1.77;;;26.40;56.00;;;;;;5039027;28;20024;-65
2023/10/05 10:26:30;;;;;;;4.32;1.50;;;26.90;53.80;;;;;;5038849;28;20479;-65
2023/10/05 10:28:57;;;;;;;5.85;1.90;;;26.70;53.20;;;;;;5064117;28;20033;-64
2023/10/05 10:31:42;;;;;;;4.03;1.70;;;26.00;54.20;;;;;;5055120;28;20044;-65
2023/10/05 10:34:19;;;;;;;3.45;1.85;;;26.10;54.50;;;;;;5083429;28;20044;-65
2023/10/05 10:36:52;;;;;;;2.20;1.20;;;25.90;54.80;;;;;;5078793;28;20032;-66
2023/10/05 10:39:24;;;;;;;4.53;1.88;;;25.80;54.10;;;;;;5076932;28;20020;-64
2023/10/05 10:42:01;;;;;;;5.32;1.67;;;25.70;54.60;;;;;;5076471;28;20033;-64
2023/10/05 10:44:27;;;;;;;5.82;1.60;;;25.70;54.20;;;;;;5076372;28;20050;-71
2023/10/05 10:47:12;;;;;;;4.95;1.50;;;26.10;54.20;;;;;;5074870;28;20083;-64
2023/10/05 10:49:39;;;;;;;4.13;1.85;;;26.50;52.90;;;;;;5074956;28;20024;-64
2023/10/05 10:52:09;;;;;;;2.37;1.70;;;26.60;52.90;;;;;;5075829;28;20153;-64
2023/10/05 10:54:41;;;;;;;7.63;1.65;;;26.30;51.80;;;;;;5076047;28;20025;-65
2023/10/05 10:57:08;;;;;;;4.50;1.50;;;26.00;53.30;;;;;;5076196;28;20033;-65
2023/10/05 10:59:41;;;;;;;2.22;1.40;;;26.10;52.80;;;;;;5076102;28;20167;-64
2023/10/05 11:02:12;;;;;;;4.25;1.83;;;25.80;54.00;;;;;;5074870;28;20377;-64
2023/10/05 11:04:39;;;;;;;3.97;1.98;;;26.10;52.80;;;;;;5074718;28;20036;-64
2023/10/05 11:07:05;;;;;;;3.92;1.77;;;26.90;51.80;;;;;;5075932;28;20113;-64
2023/10/05 11:09:52;;;;;;;3.47;1.63;;;26.80;51.20;;;;;;5075916;28;20045;-65
2023/10/05 11:12:21;;;;;;;4.10;1.67;;;27.20;51.80;;;;;;5075867;28;20036;-64
2023/10/05 11:14:46;;;;;;;;;;;28.10;50.50;;;;;;5074775;28;20487;-64
2023/10/05 11:17:46;;;;;;;2.33;1.58;;;28.40;49.80;;;;;;5075601;28;19909;-65
2023/10/05 11:20:25;;;;;;;2.67;1.48;;;28.60;49.30;;;;;;5031530;28;20041;-64
2023/10/05 11:22:55;;;;;;;4.43;1.48;;;28.20;49.10;;;;;;5075443;28;20023;-64
2023/10/05 11:25:32;;;;;;;3.33;1.65;;;28.30;49.80;;;;;;5075303;28;20021;-64
2023/10/05 11:27:59;;;;;;;3.45;1.90;;;28.40;49.20;;;;;;5075674;28;20025;-64
2023/10/05 11:30:41;;;;;;;4.07;1.90;;;28.30;48.50;;;;;;5075440;28;20040;-64
2023/10/05 11:33:15;;;;;;;4.15;1.70;;;27.80;48.70;;;;;;5074546;28;20483;-64
2023/10/05 11:35:49;;;;;;;4.47;1.80;;;27.40;49.50;;;;;;5075400;28;20147;-65
2023/10/05 11:38:16;;;;;;;3.35;1.80;;;28.00;49.80;;;;;;5075428;28;20043;-64
2023/10/05 11:40:49;;;;;;;4.30;2.00;;;28.50;48.60;;;;;;5075113;28;20074;-64
2023/10/05 11:43:20;;;;;;;2.05;1.50;;;28.60;47.90;;;;;;5075088;28;20036;-66
2023/10/05 11:46:12;;;;;;;2.42;1.60;;;28.90;48.30;;;;;;5074985;28;20177;-65
2023/10/05 11:48:47;;;;;;;3.90;1.70;;;29.90;47.40;;;;;;5074944;28;20118;-65
2023/10/05 11:51:15;;;;;;;5.00;2.38;;;29.40;46.70;;;;;;5074686;28;20020;-65
2023/10/05 11:53:43;;;;;;;3.30;1.70;;;29.60;46.90;;;;;;5074892;28;20028;-66
2023/10/05 11:56:09;;;;;;;2.22;1.75;;;29.70;46.70;;;;;;5074683;28;20052;-64
2023/10/05 11:58:41;;;;;;;3.38;1.90;;;28.40;47.80;;;;;;5074894;28;20442;-64
2023/10/05 12:01:07;;;;;;;5.75;2.00;;;27.50;49.10;;;;;;5074762;28;20414;-64
2023/10/05 12:03:33;;;;;;;3.13;1.88;;;27.50;49.30;;;;;;5074634;28;20056;-64
2023/10/05 12:06:08;;;;;;;3.38;1.98;;;27.50;48.90;;;;;;5074907;28;20087;-64
2023/10/05 12:08:34;;;;;;;3.60;1.75;;;26.20;50.00;;;;;;5074686;28;20024;-64
2023/10/05 12:11:00;;;;;;;4.18;1.70;;;26.00;51.20;;;;;;5074911;28;20023;-64
2023/10/05 12:13:27;;;;;;;3.63;1.70;;;26.10;50.80;;;;;;5074464;28;20115;-64
2023/10/05 12:15:53;;;;;;;3.33;1.60;;;25.70;50.90;;;;;;5073483;28;20040;-65
2023/10/05 12:18:19;;;;;;;5.25;1.77;;;25.90;51.50;;;;;;5074410;28;20033;-64
2023/10/05 12:20:47;;;;;;;2.95;1.50;;;26.60;51.00;;;;;;5074543;28;20127;-64
2023/10/05 12:23:14;;;;;;;2.92;1.83;;;26.50;50.60;;;;;;5074325;28;20028;-64
2023/10/05 12:25:45;;;;;;;5.50;1.83;;;26.20;51.10;;;;;;5074481;28;20078;-64
2023/10/05 12:28:11;;;;;;;2.85;1.75;;;26.00;51.80;;;;;;5074285;28;20021;-64
2023/10/05 12:30:44;;;;;;;3.35;1.67;;;26.40;51.40;;;;;;5074124;28;20025;-64
2023/10/05 12:33:13;;;;;;;4.28;1.95;;;27.10;50.70;;;;;;5074526;28;20076;-64
2023/10/05 12:35:38;;;;;;;2.83;1.63;;;27.10;50.10;;;;;;5074253;28;20028;-64
2023/10/05 12:38:09;;;;;;;3.65;1.58;;;26.90;50.50;;;;;;5074084;28;20040;-64
2023/10/05 12:40:41;;;;;;;4.50;1.15;;;26.70;51.50;;;;;;5074140;28;20029;-64
2023/10/05 12:43:09;;;;;;;3.78;1.75;;;27.00;50.60;;;;;;5074077;28;20043;-64
2023/10/05 12:45:35;;;;;;;3.60;1.73;;;27.00;50.20;;;;;;5072713;28;20473;-64
2023/10/05 12:48:04;;;;;;;6.75;1.70;;;27.00;51.50;;;;;;5074103;28;20063;-64
2023/10/05 12:50:29;;;;;;;3.33;1.77;;;27.00;50.70;;;;;;5074014;28;20103;-64
2023/10/05 12:52:56;;;;;;;4.00;1.73;;;26.90;50.10;;;;;;5074002;28;20170;-64
2023/10/05 12:55:23;;;;;;;3.55;1.75;;;26.40;51.10;;;;;;5072486;28;20517;-64
2023/10/05 12:57:50;;;;;;;4.88;1.50;;;26.40;50.90;;;;;;5073777;28;20024;-64
2023/10/05 13:00:19;;;;;;;4.25;1.50;;;26.30;51.30;;;;;;5073549;28;20446;-64
2023/10/05 13:02:52;;;;;;;2.80;1.70;;;25.60;52.40;;;;;;5073774;28;20522;-64
2023/10/05 13:05:43;;;;;;;3.47;2.13;;;25.80;52.20;;;;;;5073903;28;20464;-64
2023/10/05 13:08:11;;;;;;;3.25;1.77;;;25.60;51.90;;;;;;5073612;28;20462;-64
2023/10/05 13:10:40;;;;;;;4.72;2.00;;;25.60;52.30;;;;;;5072556;28;20025;-66
2023/10/05 13:13:20;;;;;;;3.53;1.63;;;25.10;53.00;;;;;;5073541;28;20032;-66
2023/10/05 13:15:46;;;;;;;5.43;2.10;;;24.80;53.20;;;;;;5072753;28;20350;-66
2023/10/05 13:18:17;;;;;;;3.28;1.80;;;24.40;53.70;;;;;;5072789;28;20427;-66
2023/10/05 13:20:51;;;;;;;2.92;1.45;;;24.00;55.00;;;;;;5074007;28;20028;-66
2023/10/05 13:23:24;;;;;;;5.03;1.80;;;23.50;56.10;;;;;;5074722;28;20017;-66